N12KBM -KSAN
Flight info
| Callsign | N12KBM |
|---|---|
| Flight time | N/A |
| Altitude | VFR |
| Route | |
| Aircraft | PA28/L-VGD/C |
Departure
| Time | N/A |
|---|---|
| Airport | - |
Arrival
| Time | 2026-05-05 03:21 |
|---|---|
| Airport | San Diego International Airport (KSAN) |
| Time | Latitude | Longitude | Altitude | Speed | Heading |
|---|---|---|---|---|---|
| 2026-05-05 03:20 | 32.73445 | -117.18490 | 19 ft | 0 kts | 15° |
| 2026-05-05 03:24 | 32.73434 | -117.18452 | 20 ft | 8 kts | 172° |
| 2026-05-05 03:24 | 32.73431 | -117.18452 | 20 ft | 0 kts | 172° |
| 2026-05-05 03:25 | 32.73390 | -117.18432 | 21 ft | 15 kts | 156° |
| 2026-05-05 03:25 | 32.73343 | -117.18411 | 21 ft | 14 kts | 197° |
| 2026-05-05 03:25 | 32.73308 | -117.18428 | 21 ft | 0 kts | 201° |
| 2026-05-05 03:26 | 32.73301 | -117.18431 | 21 ft | 9 kts | 200° |
| 2026-05-05 03:26 | 32.73224 | -117.18460 | 20 ft | 10 kts | 230° |
| 2026-05-05 03:26 | 32.73222 | -117.18467 | 20 ft | 0 kts | 282° |
| 2026-05-05 03:27 | 32.73240 | -117.18541 | 21 ft | 35 kts | 289° |
| 2026-05-05 03:27 | 32.73373 | -117.19054 | 24 ft | 91 kts | 287° |
| 2026-05-05 03:27 | 32.73555 | -117.19822 | 286 ft | 96 kts | 284° |
| 2026-05-05 03:27 | 32.73888 | -117.20549 | 417 ft | 105 kts | 2° |
| 2026-05-05 03:28 | 32.74598 | -117.20296 | 647 ft | 114 kts | 48° |
| 2026-05-05 03:28 | 32.74546 | -117.19321 | 638 ft | 137 kts | 108° |
| 2026-05-05 03:28 | 32.74260 | -117.18303 | 1005 ft | 127 kts | 109° |
| 2026-05-05 03:28 | 32.73937 | -117.17226 | 965 ft | 147 kts | 109° |
| 2026-05-05 03:29 | 32.73562 | -117.16108 | 957 ft | 148 kts | 130° |
| 2026-05-05 03:29 | 32.72873 | -117.16058 | 894 ft | 105 kts | 232° |
| 2026-05-05 03:29 | 32.72758 | -117.16823 | 534 ft | 94 kts | 292° |
| 2026-05-05 03:29 | 32.73004 | -117.17515 | 136 ft | 87 kts | 284° |
| 2026-05-05 03:30 | 32.73156 | -117.18157 | 57 ft | 74 kts | 287° |
| 2026-05-05 03:30 | 32.73274 | -117.18666 | 30 ft | 62 kts | 282° |
| 2026-05-05 03:30 | 32.73433 | -117.19236 | 229 ft | 79 kts | 289° |
| 2026-05-05 03:30 | 32.73621 | -117.19944 | 394 ft | 102 kts | 283° |
| 2026-05-05 03:31 | 32.73951 | -117.20703 | 518 ft | 121 kts | 330° |
| 2026-05-05 03:31 | 32.74637 | -117.20222 | 478 ft | 134 kts | 70° |
| 2026-05-05 03:31 | 32.74871 | -117.19239 | 776 ft | 118 kts | 77° |
| 2026-05-05 03:31 | 32.75034 | -117.18291 | 923 ft | 119 kts | 82° |
| 2026-05-05 03:32 | 32.75112 | -117.17291 | 1010 ft | 123 kts | 87° |
| 2026-05-05 03:32 | 32.75118 | -117.16281 | 1177 ft | 116 kts | 98° |
| 2026-05-05 03:32 | 32.74744 | -117.15495 | 1277 ft | 115 kts | 139° |
| 2026-05-05 03:32 | 32.73979 | -117.15149 | 1145 ft | 124 kts | 177° |
| 2026-05-05 03:33 | 32.73184 | -117.15268 | 1103 ft | 103 kts | 216° |
| 2026-05-05 03:33 | 32.72776 | -117.15956 | 867 ft | 103 kts | 246° |
| 2026-05-05 03:33 | 32.72790 | -117.16735 | 477 ft | 92 kts | 288° |
| 2026-05-05 03:33 | 32.72977 | -117.17410 | 171 ft | 82 kts | 285° |
| 2026-05-05 03:34 | 32.73128 | -117.18050 | 71 ft | 83 kts | 285° |
| 2026-05-05 03:34 | 32.73275 | -117.18664 | 21 ft | 66 kts | 284° |
| 2026-05-05 03:34 | 32.73422 | -117.19249 | 240 ft | 78 kts | 288° |
| 2026-05-05 03:34 | 32.73567 | -117.19919 | 435 ft | 88 kts | 283° |
| 2026-05-05 03:35 | 32.73871 | -117.20585 | 690 ft | 94 kts | 324° |
| 2026-05-05 03:35 | 32.74326 | -117.20363 | 1066 ft | 87 kts | 73° |
| 2026-05-05 03:35 | 32.74399 | -117.19522 | 1089 ft | 114 kts | 88° |
| 2026-05-05 03:35 | 32.74407 | -117.18507 | 1092 ft | 130 kts | 90° |
| 2026-05-05 03:36 | 32.74379 | -117.17447 | 1264 ft | 125 kts | 93° |
| 2026-05-05 03:36 | 32.74288 | -117.16413 | 1372 ft | 128 kts | 101° |
| 2026-05-05 03:36 | 32.73943 | -117.15400 | 1316 ft | 137 kts | 125° |
| 2026-05-05 03:36 | 32.73216 | -117.14960 | 1233 ft | 106 kts | 184° |
| 2026-05-05 03:37 | 32.72638 | -117.15325 | 1227 ft | 94 kts | 239° |
| 2026-05-05 03:37 | 32.72611 | -117.16055 | 787 ft | 90 kts | 288° |
| 2026-05-05 03:37 | 32.72828 | -117.16702 | 500 ft | 80 kts | 281° |
| 2026-05-05 03:37 | 32.72945 | -117.17316 | 247 ft | 76 kts | 285° |
| 2026-05-05 03:38 | 32.73105 | -117.17942 | 90 ft | 81 kts | 285° |
| 2026-05-05 03:38 | 32.73261 | -117.18579 | 27 ft | 77 kts | 286° |
| 2026-05-05 03:38 | 32.73432 | -117.19268 | 215 ft | 96 kts | 285° |
| 2026-05-05 03:38 | 32.73651 | -117.20037 | 535 ft | 100 kts | 290° |
| 2026-05-05 03:39 | 32.74209 | -117.20604 | 523 ft | 131 kts | 340° |
| 2026-05-05 03:39 | 32.75043 | -117.20379 | 705 ft | 129 kts | 54° |
| 2026-05-05 03:39 | 32.75332 | -117.19380 | 928 ft | 129 kts | 76° |
| 2026-05-05 03:39 | 32.75554 | -117.18318 | 1087 ft | 136 kts | 76° |
| 2026-05-05 03:40 | 32.75747 | -117.17192 | 1220 ft | 139 kts | 81° |
| 2026-05-05 03:40 | 32.75678 | -117.16088 | 1401 ft | 138 kts | 116° |
| 2026-05-05 03:40 | 32.74999 | -117.15265 | 1335 ft | 143 kts | 156° |
| 2026-05-05 03:40 | 32.74188 | -117.15051 | 1490 ft | 110 kts | 175° |
| 2026-05-05 03:41 | 32.73364 | -117.15061 | 1353 ft | 123 kts | 185° |
| 2026-05-05 03:41 | 32.72765 | -117.15493 | 1103 ft | 100 kts | 233° |
| 2026-05-05 03:41 | 32.72719 | -117.16305 | 655 ft | 109 kts | 287° |
| 2026-05-05 03:41 | 32.72914 | -117.17139 | 293 ft | 93 kts | 286° |
| 2026-05-05 03:42 | 32.73068 | -117.17795 | 115 ft | 73 kts | 285° |
| 2026-05-05 03:42 | 32.73196 | -117.18316 | 28 ft | 58 kts | 285° |
| 2026-05-05 03:42 | 32.73290 | -117.18715 | 20 ft | 37 kts | 285° |
| 2026-05-05 03:42 | 32.73356 | -117.18820 | 18 ft | 9 kts | 352° |
| 2026-05-05 03:43 | 32.73421 | -117.18779 | 17 ft | 9 kts | 75° |
| 2026-05-05 03:43 | 32.73477 | -117.18669 | 17 ft | 8 kts | 17° |